Time;durP1;ratioP1;P1;durP2;ratioP2;P2;SDS_P1;SDS_P2;PMS_P1;PMS_P2;Temp;Humidity;BMP_temperature;BMP_pressure;BME280_temperature;BME280_humidity;BME280_pressure;Samples;Min_cycle;Max_cycle;Signal;HPM_P1;HPM_P2
2023/05/21 00:00:08;;;;;;;1.48;1.35;;;12.10;99.90;;;;;;5003419;28;20054;-71
2023/05/21 00:02:38;;;;;;;2.25;1.27;;;12.20;99.90;;;;;;5004130;28;20057;-64
2023/05/21 00:05:10;;;;;;;2.70;1.52;;;12.20;99.90;;;;;;5003864;28;20069;-64
2023/05/21 00:07:40;;;;;;;1.25;1.00;;;12.20;99.90;;;;;;5001399;28;21454;-68
2023/05/21 00:10:07;;;;;;;2.65;2.00;;;12.20;99.90;;;;;;5001146;28;20054;-61
2023/05/21 00:12:34;;;;;;;1.60;1.25;;;12.20;99.90;;;;;;5001782;28;20050;-62
2023/05/21 00:15:01;;;;;;;2.75;1.40;;;12.20;99.90;;;;;;4985893;28;20086;-71
2023/05/21 00:17:28;;;;;;;2.60;1.25;;;12.20;99.90;;;;;;5001269;28;20046;-65
2023/05/21 00:19:58;;;;;;;3.97;1.42;;;12.20;99.90;;;;;;5003098;28;20133;-60
2023/05/21 00:22:25;;;;;;;4.93;1.80;;;12.20;99.90;;;;;;5000347;28;20069;-59
2023/05/21 00:24:52;;;;;;;3.22;1.20;;;12.20;99.90;;;;;;5002156;28;20104;-66
2023/05/21 00:27:19;;;;;;;1.65;1.55;;;12.20;99.90;;;;;;5003049;28;20508;-68
2023/05/21 00:29:46;;;;;;;2.88;1.63;;;12.20;99.90;;;;;;4998134;28;20068;-67
2023/05/21 00:32:13;;;;;;;3.25;1.30;;;12.20;99.90;;;;;;4985505;28;20538;-62
2023/05/21 00:34:41;;;;;;;2.90;1.60;;;12.20;99.90;;;;;;5001199;28;20109;-63
2023/05/21 00:37:08;;;;;;;4.35;1.27;;;12.20;99.90;;;;;;4983197;28;20512;-66
2023/05/21 00:39:35;;;;;;;6.85;1.70;;;12.20;99.90;;;;;;4983235;28;20782;-61
2023/05/21 00:42:02;;;;;;;4.65;2.03;;;12.30;99.90;;;;;;4984552;28;20050;-64
2023/05/21 00:44:33;;;;;;;2.97;1.63;;;12.30;99.90;;;;;;5002769;28;20467;-64
2023/05/21 00:47:01;;;;;;;;;;;12.30;99.90;;;;;;4985783;28;20143;-62
2023/05/21 00:49:28;;;;;;;6.00;1.55;;;12.20;99.90;;;;;;4998740;28;20021;-72
2023/05/21 00:51:55;;;;;;;4.93;1.98;;;12.20;99.90;;;;;;4999944;28;20107;-66
2023/05/21 00:54:22;;;;;;;2.22;1.85;;;12.20;99.90;;;;;;5002741;28;20107;-69
2023/05/21 00:56:50;;;;;;;2.17;1.65;;;12.20;99.90;;;;;;5004312;28;20060;-73
2023/05/21 00:59:17;;;;;;;2.38;1.30;;;12.20;99.90;;;;;;5002254;28;20827;-71
2023/05/21 01:01:44;;;;;;;2.17;1.98;;;12.20;99.90;;;;;;5000691;28;20484;-66
2023/05/21 01:04:12;;;;;;;3.08;1.38;;;12.20;99.90;;;;;;4983689;28;20057;-64
2023/05/21 01:06:39;;;;;;;1.88;1.33;;;12.20;99.90;;;;;;4979750;28;20058;-64
2023/05/21 01:09:06;;;;;;;3.25;1.67;;;12.20;99.90;;;;;;5001064;28;20136;-65
2023/05/21 01:11:43;;;;;;;2.55;1.55;;;12.20;99.90;;;;;;4999686;28;20052;-69
2023/05/21 01:14:13;;;;;;;2.38;1.38;;;12.10;99.90;;;;;;4978392;28;20043;-62
2023/05/21 01:16:45;;;;;;;2.58;1.42;;;12.10;99.90;;;;;;5001705;28;20065;-61
2023/05/21 01:19:19;;;;;;;2.08;1.73;;;12.10;99.90;;;;;;4982941;28;20053;-65
2023/05/21 01:21:55;;;;;;;2.60;2.25;;;12.10;99.90;;;;;;5002880;28;20046;-67
2023/05/21 01:24:22;;;;;;;1.92;1.67;;;12.10;99.90;;;;;;4983329;28;20058;-69
2023/05/21 01:26:48;;;;;;;3.47;1.45;;;12.10;99.90;;;;;;4983782;28;20393;-65
2023/05/21 01:29:15;;;;;;;5.38;2.08;;;12.00;99.90;;;;;;4973568;28;20054;-65
2023/05/21 01:32:01;;;;;;;1.88;1.50;;;12.00;99.90;;;;;;4979423;28;20132;-66
2023/05/21 01:35:06;;;;;;;4.50;1.95;;;12.00;99.90;;;;;;5001839;28;20459;-63
2023/05/21 01:37:46;;;;;;;2.35;1.80;;;12.00;99.90;;;;;;4974414;28;20050;-66
2023/05/21 01:40:32;;;;;;;1.50;1.40;;;12.00;99.90;;;;;;4998096;28;20084;-62
2023/05/21 01:43:01;;;;;;;2.33;1.63;;;12.00;99.90;;;;;;4997585;28;20065;-68
2023/05/21 01:45:30;;;;;;;2.75;1.90;;;12.00;99.90;;;;;;4999701;28;20058;-61
2023/05/21 01:47:57;;;;;;;6.60;2.13;;;11.90;99.90;;;;;;5001073;28;20155;-63
2023/05/21 01:50:25;;;;;;;3.38;1.55;;;11.90;99.90;;;;;;4999374;28;20056;-70
2023/05/21 01:52:55;;;;;;;3.67;1.52;;;11.90;99.90;;;;;;5000184;28;20128;-63
2023/05/21 01:55:25;;;;;;;2.70;1.35;;;11.80;99.90;;;;;;4996214;28;20042;-62
2023/05/21 01:57:54;;;;;;;4.13;1.92;;;11.80;99.90;;;;;;4979873;28;20061;-64
2023/05/21 02:00:23;;;;;;;2.67;1.85;;;11.80;99.90;;;;;;4981612;28;20148;-66
2023/05/21 02:02:50;;;;;;;15.82;2.00;;;11.70;99.90;;;;;;4984299;28;20663;-64
2023/05/21 02:05:17;;;;;;;2.53;2.33;;;11.70;99.90;;;;;;5001574;28;20057;-61
2023/05/21 02:07:48;;;;;;;2.05;1.65;;;11.70;99.90;;;;;;4982086;28;20100;-62
2023/05/21 02:10:15;;;;;;;3.15;1.98;;;11.70;99.90;;;;;;4994657;28;20050;-62
2023/05/21 02:12:42;;;;;;;4.97;2.80;;;11.70;99.90;;;;;;4998785;28;20049;-66
2023/05/21 02:15:09;;;;;;;3.47;1.50;;;11.70;99.90;;;;;;4975682;28;20072;-63
2023/05/21 02:17:37;;;;;;;2.40;1.80;;;11.70;99.90;;;;;;4982496;28;20084;-61
2023/05/21 02:20:12;;;;;;;4.70;2.45;;;11.70;99.90;;;;;;4982966;28;20049;-62
2023/05/21 02:22:40;;;;;;;;;;;11.70;99.90;;;;;;5000739;28;20042;-61
2023/05/21 02:25:08;;;;;;;4.40;1.98;;;11.70;99.90;;;;;;4997932;28;19925;-70
2023/05/21 02:27:36;;;;;;;3.92;2.05;;;11.80;99.90;;;;;;4999655;28;20050;-64
2023/05/21 02:30:06;;;;;;;5.03;2.60;;;11.80;99.90;;;;;;5001820;28;20571;-65
2023/05/21 02:32:33;;;;;;;3.75;1.70;;;11.80;99.90;;;;;;5000633;28;20080;-69
2023/05/21 02:35:02;;;;;;;4.40;2.45;;;11.80;99.90;;;;;;5001171;28;20590;-64
2023/05/21 02:37:33;;;;;;;3.90;2.13;;;11.80;99.90;;;;;;4998524;28;20053;-64
2023/05/21 02:40:04;;;;;;;6.05;2.78;;;11.80;99.90;;;;;;4999295;28;20050;-66
2023/05/21 02:42:32;;;;;;;3.95;2.50;;;11.80;99.90;;;;;;4986070;28;20080;-67
2023/05/21 02:44:59;;;;;;;5.55;2.28;;;11.80;99.90;;;;;;5005983;28;20127;-64
2023/05/21 02:47:26;;;;;;;6.75;3.05;;;11.80;99.90;;;;;;5005059;28;20065;-67
2023/05/21 02:49:53;;;;;;;4.57;2.60;;;11.80;99.90;;;;;;4985404;28;20120;-62
2023/05/21 02:52:23;;;;;;;4.80;2.00;;;11.80;99.90;;;;;;5005344;28;20050;-65
2023/05/21 02:54:52;;;;;;;4.65;2.25;;;11.80;99.90;;;;;;4985053;28;20579;-70
2023/05/21 02:57:19;;;;;;;4.35;1.77;;;11.80;99.90;;;;;;5004578;28;20084;-68
2023/05/21 02:59:46;;;;;;;8.32;2.58;;;11.80;99.90;;;;;;4986031;28;20069;-63
2023/05/21 03:02:13;;;;;;;4.97;1.85;;;11.70;99.90;;;;;;4986979;28;20049;-63
2023/05/21 03:04:44;;;;;;;4.30;2.17;;;11.70;99.90;;;;;;5005592;28;20061;-63
2023/05/21 03:07:13;;;;;;;5.20;2.78;;;11.70;99.90;;;;;;4980817;28;20064;-73
2023/05/21 03:09:41;;;;;;;6.85;2.83;;;11.70;99.90;;;;;;4985439;28;20133;-68
2023/05/21 03:12:08;;;;;;;2.70;2.10;;;11.70;99.90;;;;;;4978802;28;20074;-63
2023/05/21 03:14:35;;;;;;;2.13;1.90;;;11.70;99.90;;;;;;4984870;28;20108;-69
2023/05/21 03:17:05;;;;;;;4.07;2.97;;;11.80;99.90;;;;;;4987647;28;20135;-64
2023/05/21 03:19:34;;;;;;;5.88;3.13;;;11.80;99.90;;;;;;4985328;28;20134;-67
2023/05/21 03:22:03;;;;;;;8.32;3.03;;;11.80;99.90;;;;;;5004307;28;20042;-66
2023/05/21 03:24:34;;;;;;;;;;;11.90;99.90;;;;;;4985818;28;20046;-69
2023/05/21 03:27:01;;;;;;;5.65;2.30;;;11.90;99.90;;;;;;4984378;28;20346;-65
2023/05/21 03:29:28;;;;;;;5.47;2.15;;;11.90;99.90;;;;;;4985248;28;20108;-61
2023/05/21 03:31:55;;;;;;;2.05;1.85;;;12.00;99.90;;;;;;4985414;28;20072;-67
2023/05/21 03:34:23;;;;;;;2.55;1.75;;;12.00;99.90;;;;;;4985153;28;20062;-71
2023/05/21 03:36:50;;;;;;;11.60;3.38;;;12.00;99.90;;;;;;5002751;28;20606;-67
2023/05/21 03:39:17;;;;;;;5.03;2.60;;;12.10;99.90;;;;;;4984659;28;20050;-61
2023/05/21 03:41:44;;;;;;;2.28;2.10;;;12.10;99.90;;;;;;5000923;28;20061;-63
2023/05/21 03:44:21;;;;;;;4.30;2.40;;;12.20;99.90;;;;;;4985509;28;20061;-69
2023/05/21 03:47:00;;;;;;;3.60;1.98;;;12.20;99.90;;;;;;4984966;28;20141;-66
2023/05/21 03:49:30;;;;;;;3.50;1.80;;;12.20;99.90;;;;;;4978089;28;20049;-61
2023/05/21 03:51:57;;;;;;;3.40;2.10;;;12.20;99.90;;;;;;4983312;28;20476;-69
2023/05/21 03:54:25;;;;;;;9.18;2.25;;;12.30;99.90;;;;;;4985664;28;20049;-62
2023/05/21 03:56:56;;;;;;;2.28;2.08;;;12.30;99.90;;;;;;4976836;28;20683;-61
2023/05/21 03:59:25;;;;;;;2.92;2.38;;;12.40;99.90;;;;;;4985686;28;20085;-66
2023/05/21 04:01:52;;;;;;;3.33;2.65;;;12.40;99.90;;;;;;4983233;28;20074;-70
2023/05/21 04:04:18;;;;;;;9.93;2.50;;;12.40;99.90;;;;;;4985609;28;20080;-66
2023/05/21 04:06:47;;;;;;;3.42;1.58;;;12.50;99.90;;;;;;5003386;28;20132;-63
2023/05/21 04:09:14;;;;;;;4.07;1.50;;;12.50;99.90;;;;;;4984559;28;20053;-67
2023/05/21 04:11:41;;;;;;;3.70;2.38;;;12.60;99.90;;;;;;4982672;28;20103;-65
2023/05/21 04:14:09;;;;;;;2.65;1.98;;;12.70;99.90;;;;;;5003954;28;20049;-61
2023/05/21 04:16:37;;;;;;;10.15;3.85;;;12.70;99.90;;;;;;5003048;28;20050;-69
2023/05/21 04:19:05;;;;;;;4.15;1.48;;;12.80;99.90;;;;;;5003159;28;20057;-68
2023/05/21 04:21:32;;;;;;;5.32;2.65;;;12.80;99.90;;;;;;4982863;28;20050;-67
2023/05/21 04:23:59;;;;;;;3.83;1.88;;;12.90;99.90;;;;;;4974908;28;20046;-61
2023/05/21 04:26:49;;;;;;;4.82;2.05;;;12.90;99.90;;;;;;4999451;28;20451;-65
2023/05/21 04:29:19;;;;;;;3.70;1.90;;;13.00;99.90;;;;;;4983674;28;20093;-69
2023/05/21 04:31:48;;;;;;;6.43;2.42;;;13.10;99.90;;;;;;4983606;28;20513;-69
2023/05/21 04:34:16;;;;;;;1.80;1.48;;;13.20;99.90;;;;;;4984894;28;20068;-63
2023/05/21 04:36:44;;;;;;;3.30;2.40;;;13.20;99.90;;;;;;4984229;28;20082;-63
2023/05/21 04:39:13;;;;;;;4.03;1.70;;;13.30;99.90;;;;;;4998856;28;20061;-64
2023/05/21 04:41:40;;;;;;;5.75;2.47;;;13.30;99.90;;;;;;4981894;28;20039;-62
2023/05/21 04:44:08;;;;;;;9.43;3.28;;;13.40;99.90;;;;;;5001921;28;20056;-71
2023/05/21 04:46:36;;;;;;;5.07;1.35;;;13.40;99.90;;;;;;4984831;28;20042;-64
2023/05/21 04:49:06;;;;;;;3.28;1.88;;;13.40;99.90;;;;;;4984487;28;20473;-69
2023/05/21 04:51:36;;;;;;;2.00;1.90;;;13.50;99.90;;;;;;5002107;28;20478;-65
2023/05/21 04:54:03;;;;;;;4.15;2.20;;;13.50;99.90;;;;;;4985093;28;20050;-63
2023/05/21 04:56:30;;;;;;;3.65;2.17;;;13.60;99.90;;;;;;4983387;28;20127;-72
2023/05/21 04:58:58;;;;;;;3.25;2.50;;;13.70;99.90;;;;;;4984496;28;20164;-62
2023/05/21 05:01:25;;;;;;;3.80;1.63;;;13.80;99.90;;;;;;4983157;28;20082;-62
2023/05/21 05:03:53;;;;;;;3.67;2.08;;;13.90;99.90;;;;;;4981936;28;20953;-71
2023/05/21 05:06:21;;;;;;;5.75;1.98;;;14.00;99.90;;;;;;5002391;28;20773;-61
2023/05/21 05:08:48;;;;;;;1.80;1.70;;;14.10;99.90;;;;;;4984886;28;20054;-70
2023/05/21 05:11:15;;;;;;;2.65;1.77;;;14.20;99.90;;;;;;4981852;28;20054;-71
2023/05/21 05:13:42;;;;;;;3.63;1.85;;;14.40;99.90;;;;;;4983339;28;20050;-69
2023/05/21 05:16:10;;;;;;;2.05;1.50;;;14.60;99.90;;;;;;5002405;28;20046;-62
2023/05/21 05:18:37;;;;;;;6.05;2.15;;;14.80;99.90;;;;;;4984547;28;20049;-65
2023/05/21 05:21:04;;;;;;;3.50;1.60;;;15.00;99.90;;;;;;4984743;28;20065;-63
2023/05/21 05:23:31;;;;;;;2.40;2.20;;;15.20;99.90;;;;;;4999256;28;20081;-62
2023/05/21 05:25:57;;;;;;;1.88;1.77;;;15.30;99.90;;;;;;5001054;28;20046;-71
2023/05/21 05:28:26;;;;;;;1.80;1.30;;;15.40;99.90;;;;;;4984721;28;20482;-63
2023/05/21 05:30:53;;;;;;;4.32;1.83;;;15.60;99.90;;;;;;4983983;28;20470;-70
2023/05/21 05:33:23;;;;;;;4.10;2.42;;;15.70;99.90;;;;;;4998850;28;20046;-63
2023/05/21 05:35:49;;;;;;;1.90;1.63;;;15.70;99.90;;;;;;4983530;28;20066;-63
2023/05/21 05:38:16;;;;;;;3.65;1.90;;;15.80;99.90;;;;;;5000753;28;20081;-65
2023/05/21 05:40:44;;;;;;;1.38;1.27;;;15.90;99.90;;;;;;4982975;28;20562;-66
2023/05/21 05:43:11;;;;;;;5.72;2.58;;;15.90;99.90;;;;;;5001084;28;20085;-61
2023/05/21 05:45:37;;;;;;;4.40;2.22;;;16.00;99.90;;;;;;4985414;28;20500;-67
2023/05/21 05:48:10;;;;;;;2.90;1.38;;;16.10;99.90;;;;;;4984254;28;20057;-65
2023/05/21 05:50:37;;;;;;;3.40;2.03;;;16.00;99.90;;;;;;5002864;28;20054;-63
2023/05/21 05:53:06;;;;;;;3.90;1.92;;;16.00;99.90;;;;;;5002025;28;20053;-63
2023/05/21 05:55:33;;;;;;;7.95;1.88;;;16.10;99.90;;;;;;4981707;28;20050;-67
2023/05/21 05:58:00;;;;;;;2.17;1.45;;;16.10;99.90;;;;;;4981771;28;20056;-62
2023/05/21 06:00:27;;;;;;;2.92;2.35;;;16.20;99.90;;;;;;4980664;28;20232;-67
2023/05/21 06:02:57;;;;;;;3.72;2.63;;;16.10;99.90;;;;;;4980941;28;20069;-66
2023/05/21 06:05:24;;;;;;;3.10;1.50;;;16.10;99.90;;;;;;4980930;28;20097;-62
2023/05/21 06:07:51;;;;;;;3.28;1.17;;;16.10;99.90;;;;;;4977421;28;20127;-68
2023/05/21 06:10:19;;;;;;;4.78;1.70;;;16.10;99.90;;;;;;4979454;28;20116;-62
2023/05/21 06:12:46;;;;;;;2.70;1.63;;;16.10;99.90;;;;;;4978023;28;20124;-65
2023/05/21 06:15:15;;;;;;;5.57;2.22;;;16.20;99.90;;;;;;4980492;28;20404;-62
2023/05/21 06:17:42;;;;;;;2.00;1.80;;;16.30;99.90;;;;;;4985010;28;20054;-61
2023/05/21 06:20:11;;;;;;;4.25;2.90;;;16.40;99.90;;;;;;4998852;28;20058;-62
2023/05/21 06:22:38;;;;;;;3.53;1.73;;;16.50;99.90;;;;;;4983501;28;20515;-63
2023/05/21 06:25:07;;;;;;;4.35;1.40;;;16.60;99.90;;;;;;4982990;28;20065;-62
2023/05/21 06:27:34;;;;;;;3.78;1.73;;;16.70;99.90;;;;;;4983618;28;20455;-69
2023/05/21 06:30:03;;;;;;;2.95;2.03;;;16.80;99.90;;;;;;4984652;28;20504;-70
2023/05/21 06:32:30;;;;;;;5.55;1.95;;;16.90;99.90;;;;;;4983390;28;20050;-68
2023/05/21 06:34:57;;;;;;;1.55;1.45;;;17.10;99.90;;;;;;4985124;28;20483;-64
2023/05/21 06:37:24;;;;;;;2.05;1.55;;;17.20;99.90;;;;;;4984246;28;20509;-71
2023/05/21 06:39:53;;;;;;;6.35;1.65;;;17.20;99.90;;;;;;4975606;28;20706;-71
2023/05/21 06:42:20;;;;;;;1.83;1.67;;;17.20;99.90;;;;;;4983789;28;20085;-64
2023/05/21 06:45:13;;;;;;;2.05;1.48;;;17.30;99.90;;;;;;4982143;28;20054;-64
2023/05/21 06:47:43;;;;;;;3.53;1.80;;;17.30;99.90;;;;;;4982318;28;20085;-64
2023/05/21 06:50:10;;;;;;;2.25;1.50;;;17.40;99.90;;;;;;4996845;28;20481;-61
2023/05/21 06:52:37;;;;;;;8.15;4.68;;;17.50;99.90;;;;;;4983019;28;20126;-64
2023/05/21 06:55:05;;;;;;;2.85;1.35;;;17.60;99.90;;;;;;4983012;28;20060;-62
2023/05/21 06:57:52;;;;;;;4.47;1.60;;;17.60;99.90;;;;;;4982560;28;20061;-70
2023/05/21 07:00:19;;;;;;;4.47;2.00;;;17.70;99.90;;;;;;4983942;28;20062;-63
2023/05/21 07:02:47;;;;;;;3.92;2.00;;;17.70;99.90;;;;;;4983166;28;20050;-65
2023/05/21 07:05:14;;;;;;;2.97;1.88;;;17.80;99.90;;;;;;4983401;28;20046;-68
2023/05/21 07:07:41;;;;;;;4.10;2.08;;;17.90;99.90;;;;;;4980421;28;20060;-61
2023/05/21 07:10:08;;;;;;;1.85;1.70;;;18.10;99.90;;;;;;4983445;28;20046;-66
2023/05/21 07:12:35;;;;;;;4.15;1.67;;;18.20;99.90;;;;;;4983421;28;20519;-67
2023/05/21 07:15:03;;;;;;;6.55;3.28;;;18.30;99.90;;;;;;4982981;28;20051;-67
2023/05/21 07:17:30;;;;;;;3.17;1.48;;;18.40;99.90;;;;;;4982499;28;20109;-61
2023/05/21 07:19:57;;;;;;;3.08;1.80;;;18.50;99.90;;;;;;4982132;28;20058;-61
2023/05/21 07:22:24;;;;;;;1.40;1.20;;;18.60;99.90;;;;;;4996334;28;20059;-66
2023/05/21 07:24:53;;;;;;;2.95;1.60;;;18.70;99.90;;;;;;4980817;28;20080;-69
2023/05/21 07:27:20;;;;;;;1.98;1.63;;;18.80;99.90;;;;;;4981569;28;20081;-68
2023/05/21 07:29:53;;;;;;;3.35;1.65;;;18.80;99.90;;;;;;4981855;28;20050;-61
2023/05/21 07:32:20;;;;;;;1.65;1.55;;;18.90;99.90;;;;;;4981839;28;20495;-66
2023/05/21 07:34:47;;;;;;;4.95;1.90;;;18.90;99.90;;;;;;4982267;28;20084;-71
2023/05/21 07:37:15;;;;;;;2.78;1.88;;;19.00;99.90;;;;;;4982353;28;20137;-63
2023/05/21 07:39:41;;;;;;;4.22;2.03;;;19.00;99.90;;;;;;4980605;28;20054;-68
2023/05/21 07:42:10;;;;;;;1.65;1.55;;;19.00;99.90;;;;;;4977367;28;20466;-65
2023/05/21 07:44:37;;;;;;;3.10;1.52;;;19.20;99.90;;;;;;4982947;28;20054;-62
2023/05/21 07:47:04;;;;;;;3.50;2.40;;;19.20;99.90;;;;;;4980854;28;20058;-61
2023/05/21 07:49:31;;;;;;;2.08;1.70;;;19.30;99.90;;;;;;4980716;28;20517;-63
2023/05/21 07:51:58;;;;;;;2.63;1.63;;;19.30;99.90;;;;;;4982610;28;20138;-67
2023/05/21 07:54:25;;;;;;;4.35;1.52;;;19.30;99.30;;;;;;4980314;28;20060;-66
2023/05/21 07:56:52;;;;;;;1.85;1.50;;;19.30;99.00;;;;;;4981240;28;20125;-63
2023/05/21 07:59:42;;;;;;;3.55;1.48;;;19.30;98.20;;;;;;4980519;28;20527;-67
2023/05/21 08:02:10;;;;;;;1.95;1.45;;;19.40;98.70;;;;;;4986172;28;20050;-63
2023/05/21 08:04:37;;;;;;;4.90;2.25;;;19.60;98.20;;;;;;4986803;28;20412;-63
2023/05/21 08:07:08;;;;;;;;;;;19.60;97.80;;;;;;4986205;28;20061;-65
2023/05/21 08:09:35;;;;;;;2.00;1.25;;;19.70;97.90;;;;;;4982545;28;20021;-61
2023/05/21 08:12:03;;;;;;;6.30;1.95;;;19.80;97.50;;;;;;4984489;28;20562;-72
2023/05/21 08:14:30;;;;;;;2.38;1.13;;;19.90;97.80;;;;;;4984410;28;20069;-66
2023/05/21 08:16:58;;;;;;;3.08;1.75;;;20.00;96.40;;;;;;4985544;28;20054;-65
2023/05/21 08:19:24;;;;;;;3.55;1.50;;;20.10;95.70;;;;;;4985750;28;20471;-73
2023/05/21 08:21:51;;;;;;;2.30;1.40;;;20.20;97.20;;;;;;4983552;28;20046;-68
2023/05/21 08:24:20;;;;;;;4.85;2.20;;;20.30;95.90;;;;;;4985031;28;20060;-65
2023/05/21 08:26:49;;;;;;;1.65;1.17;;;20.40;96.30;;;;;;4984187;28;20057;-71
2023/05/21 08:29:16;;;;;;;1.80;1.70;;;20.50;95.10;;;;;;4985624;28;20049;-63
2023/05/21 08:31:43;;;;;;;1.50;1.25;;;20.50;95.20;;;;;;4983100;28;20078;-72
2023/05/21 08:34:10;;;;;;;3.00;1.48;;;20.70;94.90;;;;;;4984575;28;20057;-65
2023/05/21 08:36:48;;;;;;;4.40;1.25;;;20.80;94.20;;;;;;4985467;28;20060;-63
2023/05/21 08:39:41;;;;;;;1.98;1.17;;;20.90;94.50;;;;;;5000263;28;20490;-63
2023/05/21 08:42:38;;;;;;;2.20;1.63;;;21.00;92.90;;;;;;4984514;28;20049;-62
2023/05/21 08:45:06;;;;;;;2.35;1.58;;;21.00;92.90;;;;;;4984577;28;20045;-63
2023/05/21 08:47:35;;;;;;;4.00;1.42;;;21.10;92.80;;;;;;5000911;28;20611;-64
2023/05/21 08:50:07;;;;;;;2.30;1.23;;;21.30;92.40;;;;;;4985325;28;20156;-63
2023/05/21 08:52:34;;;;;;;2.28;1.75;;;21.30;92.50;;;;;;4982046;28;20596;-65
2023/05/21 08:55:03;;;;;;;3.00;1.15;;;21.30;91.90;;;;;;4984772;28;20396;-67
2023/05/21 08:57:31;;;;;;;1.70;1.33;;;21.40;92.00;;;;;;4981356;28;20062;-67
2023/05/21 09:00:00;;;;;;;1.98;1.65;;;21.50;91.60;;;;;;4979719;28;20166;-64
2023/05/21 09:02:32;;;;;;;1.92;1.13;;;21.60;91.40;;;;;;5002874;28;20208;-66
2023/05/21 09:05:02;;;;;;;1.80;1.20;;;21.70;91.60;;;;;;5000161;28;20677;-61
2023/05/21 09:07:32;;;;;;;6.60;1.65;;;21.90;91.00;;;;;;4985090;28;20045;-64
2023/05/21 09:10:24;;;;;;;7.53;1.95;;;22.00;91.30;;;;;;4993433;28;20179;-63
2023/05/21 09:12:52;;;;;;;1.42;1.02;;;22.20;91.70;;;;;;4994816;28;20157;-69
2023/05/21 09:15:19;;;;;;;1.75;1.20;;;22.20;90.70;;;;;;4984248;28;20034;-71
2023/05/21 09:17:49;;;;;;;1.40;1.10;;;22.30;91.50;;;;;;4979698;28;20408;-61
2023/05/21 09:20:45;;;;;;;1.48;1.35;;;22.40;90.40;;;;;;4994478;28;20057;-68
2023/05/21 09:23:16;;;;;;;2.28;1.58;;;22.50;88.90;;;;;;4984025;28;20789;-62
2023/05/21 09:25:46;;;;;;;2.40;1.80;;;22.50;89.40;;;;;;4978348;28;20061;-66
2023/05/21 09:28:19;;;;;;;1.50;1.00;;;22.40;85.90;;;;;;5000411;28;20054;-66
2023/05/21 09:30:47;;;;;;;1.13;1.02;;;22.40;89.80;;;;;;5001450;28;20066;-68
2023/05/21 09:33:30;;;;;;;3.25;2.17;;;22.60;90.10;;;;;;4981622;28;20081;-62
2023/05/21 09:35:57;;;;;;;2.22;1.63;;;22.90;90.20;;;;;;4982872;28;20092;-62
2023/05/21 09:38:26;;;;;;;4.22;1.65;;;23.10;88.70;;;;;;4983691;28;20057;-63
2023/05/21 09:40:56;;;;;;;3.00;1.88;;;23.30;86.70;;;;;;5000386;28;20438;-70
2023/05/21 09:43:24;;;;;;;1.33;1.23;;;23.50;86.00;;;;;;4986717;28;20050;-64
2023/05/21 09:45:54;;;;;;;3.53;1.02;;;23.50;86.90;;;;;;4982486;28;20058;-65
2023/05/21 09:48:51;;;;;;;1.75;1.63;;;23.60;86.60;;;;;;4984948;28;20128;-63
2023/05/21 09:51:20;;;;;;;2.33;1.85;;;23.70;85.70;;;;;;4984552;28;20150;-68
2023/05/21 09:53:56;;;;;;;3.65;1.50;;;23.80;85.00;;;;;;5003413;28;20053;-64
2023/05/21 09:56:28;;;;;;;1.23;1.13;;;23.80;83.50;;;;;;5004471;28;20041;-65
2023/05/21 09:59:00;;;;;;;1.67;1.52;;;23.90;86.20;;;;;;5000238;28;20054;-63
2023/05/21 10:01:30;;;;;;;3.17;1.58;;;24.10;86.80;;;;;;5006306;28;20073;-62
2023/05/21 10:03:59;;;;;;;3.80;1.75;;;24.10;84.90;;;;;;5004722;28;20060;-62
2023/05/21 10:06:28;;;;;;;2.20;1.27;;;24.10;85.20;;;;;;5006778;28;20103;-67
2023/05/21 10:08:56;;;;;;;3.03;1.67;;;24.10;86.50;;;;;;5006107;28;20061;-62
2023/05/21 10:11:30;;;;;;;3.60;1.75;;;24.10;85.30;;;;;;5004339;28;20454;-65
2023/05/21 10:14:01;;;;;;;2.10;1.40;;;24.10;83.80;;;;;;5000185;28;20688;-72
2023/05/21 10:16:31;;;;;;;3.72;1.85;;;24.10;85.20;;;;;;5005672;28;20172;-65
2023/05/21 10:18:59;;;;;;;1.88;1.63;;;24.00;84.30;;;;;;4985548;28;20072;-65
2023/05/21 10:21:30;;;;;;;1.55;1.38;;;23.90;85.20;;;;;;5003636;28;20057;-66
2023/05/21 10:23:57;;;;;;;1.40;1.25;;;23.90;87.10;;;;;;5005339;28;20144;-67
2023/05/21 10:26:25;;;;;;;1.65;1.08;;;23.90;86.40;;;;;;5003334;28;20046;-67
2023/05/21 10:28:55;;;;;;;2.00;1.80;;;23.90;87.20;;;;;;5004931;28;20529;-71
2023/05/21 10:31:22;;;;;;;;;;;24.10;87.50;;;;;;5005275;28;20046;-69
2023/05/21 10:33:51;;;;;;;5.45;1.90;;;24.20;86.50;;;;;;5004515;28;19925;-63
2023/05/21 10:36:20;;;;;;;3.72;1.60;;;24.30;85.30;;;;;;5005538;28;20069;-67
2023/05/21 10:38:47;;;;;;;1.92;1.30;;;24.30;85.00;;;;;;5004710;28;20152;-65
2023/05/21 10:41:20;;;;;;;1.88;1.75;;;24.20;86.60;;;;;;5004238;28;20061;-68
2023/05/21 10:43:55;;;;;;;2.03;1.63;;;24.10;86.20;;;;;;4986056;28;20804;-68
2023/05/21 10:46:53;;;;;;;1.83;1.52;;;24.10;85.30;;;;;;5005200;28;20070;-64
2023/05/21 10:49:28;;;;;;;1.95;1.45;;;24.20;84.10;;;;;;5004317;28;20198;-62
2023/05/21 10:52:18;;;;;;;2.25;1.77;;;24.40;85.80;;;;;;5003389;28;20833;-66
2023/05/21 10:55:03;;;;;;;2.23;1.63;;;24.50;83.50;;;;;;5004383;28;20829;-65
2023/05/21 10:57:55;;;;;;;3.08;1.60;;;24.50;82.30;;;;;;5000859;28;20153;-63
2023/05/21 11:00:24;;;;;;;1.50;1.15;;;24.60;84.10;;;;;;4982359;28;20405;-63
2023/05/21 11:02:51;;;;;;;3.23;1.73;;;24.80;83.10;;;;;;4986072;28;20080;-68
2023/05/21 11:05:56;;;;;;;3.80;1.55;;;24.80;82.20;;;;;;5004961;28;20511;-65
2023/05/21 11:08:36;;;;;;;3.28;1.35;;;24.70;83.20;;;;;;5000354;28;20042;-64
2023/05/21 11:11:03;;;;;;;2.08;1.33;;;24.80;81.70;;;;;;5001790;28;20057;-63
2023/05/21 11:13:47;;;;;;;2.08;1.65;;;24.90;82.50;;;;;;4998471;28;20082;-66
2023/05/21 11:16:16;;;;;;;1.17;1.08;;;25.00;82.30;;;;;;4998805;28;20144;-64
2023/05/21 11:18:46;;;;;;;3.60;1.10;;;25.00;81.90;;;;;;5001210;28;20566;-67
2023/05/21 11:21:19;;;;;;;1.73;1.40;;;25.10;82.10;;;;;;5002427;28;20061;-71
2023/05/21 11:23:49;;;;;;;1.83;1.20;;;25.10;80.30;;;;;;5001026;28;20487;-63
2023/05/21 11:26:17;;;;;;;;;;;25.20;81.60;;;;;;5002870;28;20046;-65
2023/05/21 11:28:44;;;;;;;1.45;1.25;;;25.00;78.60;;;;;;5000469;28;19976;-66
2023/05/21 11:31:28;;;;;;;2.10;1.88;;;25.00;80.30;;;;;;5000897;28;20081;-63
2023/05/21 11:34:17;;;;;;;1.45;1.35;;;25.20;81.00;;;;;;4999921;28;20042;-70
2023/05/21 11:36:48;;;;;;;1.63;1.17;;;25.10;80.70;;;;;;5002974;28;20054;-69
2023/05/21 11:39:20;;;;;;;2.58;1.63;;;25.10;78.60;;;;;;5002633;28;20050;-66
2023/05/21 11:41:58;;;;;;;3.70;1.58;;;25.00;79.90;;;;;;4999451;28;20053;-62
2023/05/21 11:44:39;;;;;;;1.77;1.38;;;25.10;78.30;;;;;;5001651;28;20145;-64
2023/05/21 11:47:14;;;;;;;0.98;0.82;;;25.10;77.00;;;;;;5002282;28;20084;-63
2023/05/21 11:49:42;;;;;;;1.95;1.70;;;25.20;80.00;;;;;;5001586;28;20104;-75
2023/05/21 11:52:10;;;;;;;3.58;1.23;;;25.30;78.80;;;;;;5000053;28;20165;-67
2023/05/21 11:54:42;;;;;;;3.10;1.20;;;25.40;78.40;;;;;;5001718;28;20058;-67
2023/05/21 11:57:09;;;;;;;3.33;1.77;;;25.50;78.00;;;;;;5002117;28;20057;-66
2023/05/21 11:59:37;;;;;;;2.42;1.60;;;25.40;77.40;;;;;;4997197;28;20153;-65
2023/05/21 12:02:04;;;;;;;2.08;1.60;;;25.40;77.80;;;;;;5000445;28;20076;-64
2023/05/21 12:04:35;;;;;;;3.22;1.30;;;25.40;78.40;;;;;;5003516;28;20046;-61
2023/05/21 12:07:09;;;;;;;2.70;1.08;;;25.40;76.20;;;;;;5000027;28;20042;-66
2023/05/21 12:09:39;;;;;;;2.78;0.80;;;25.60;76.30;;;;;;5001620;28;20525;-71
2023/05/21 12:12:14;;;;;;;1.80;1.23;;;25.40;78.20;;;;;;5000313;28;20057;-63
2023/05/21 12:15:01;;;;;;;1.67;1.08;;;25.50;79.20;;;;;;4999108;28;20089;-67
2023/05/21 12:17:30;;;;;;;2.22;1.60;;;25.20;75.90;;;;;;5003377;28;20147;-64
2023/05/21 12:19:57;;;;;;;4.20;1.25;;;25.30;77.40;;;;;;5001741;28;20050;-66
2023/05/21 12:22:26;;;;;;;2.72;1.80;;;25.50;75.70;;;;;;5003045;28;20085;-67
2023/05/21 12:24:53;;;;;;;1.73;1.23;;;25.40;76.10;;;;;;5000070;28;20045;-71
2023/05/21 12:27:21;;;;;;;2.58;1.40;;;25.20;75.70;;;;;;5002844;28;20085;-68
2023/05/21 12:29:52;;;;;;;1.55;1.38;;;25.30;75.30;;;;;;4998071;28;20492;-63
2023/05/21 12:32:20;;;;;;;4.05;1.20;;;25.40;75.20;;;;;;5005068;28;20053;-65
2023/05/21 12:34:53;;;;;;;2.80;1.48;;;25.40;76.80;;;;;;5003737;28;20064;-65
2023/05/21 12:37:21;;;;;;;1.42;1.30;;;25.50;74.40;;;;;;5003408;28;20058;-69
2023/05/21 12:39:50;;;;;;;1.58;1.27;;;25.60;75.20;;;;;;5000387;28;20119;-72
2023/05/21 12:42:25;;;;;;;1.42;1.27;;;25.50;72.70;;;;;;5002655;28;20566;-64
2023/05/21 12:44:52;;;;;;;2.15;1.40;;;25.50;71.90;;;;;;5000506;28;20140;-67
2023/05/21 12:47:23;;;;;;;3.60;1.83;;;25.70;72.50;;;;;;5002712;28;20053;-65
2023/05/21 12:49:54;;;;;;;1.55;1.10;;;25.80;75.60;;;;;;4999794;28;20060;-66
2023/05/21 12:52:21;;;;;;;1.33;1.23;;;25.70;72.20;;;;;;5001786;28;20933;-62
2023/05/21 12:54:51;;;;;;;1.40;1.08;;;25.60;71.90;;;;;;5003128;28;20068;-70
2023/05/21 12:57:22;;;;;;;1.80;1.67;;;25.50;72.20;;;;;;5002317;28;20108;-65
2023/05/21 12:59:51;;;;;;;1.95;1.20;;;25.60;71.80;;;;;;5000994;28;20049;-70
2023/05/21 13:02:39;;;;;;;1.80;1.20;;;25.60;72.10;;;;;;5001646;28;20054;-70